sensor_id;sensor_type;location;lat;lon;timestamp;pressure;altitude;pressure_sealevel;temperature;humidity
21730;BME280;11027;51.030;13.812;2023-03-23T00:01:45;99446.22;;;13.78;59.73
21730;BME280;11027;51.030;13.812;2023-03-23T00:04:11;99436.97;;;13.79;59.79
21730;BME280;11027;51.030;13.812;2023-03-23T00:06:38;99432.94;;;13.82;59.71
21730;BME280;11027;51.030;13.812;2023-03-23T00:09:04;99428.91;;;13.85;59.36
21730;BME280;11027;51.030;13.812;2023-03-23T00:11:31;99430.16;;;13.89;59.29
21730;BME280;11027;51.030;13.812;2023-03-23T00:13:58;99427.38;;;13.95;59.15
21730;BME280;11027;51.030;13.812;2023-03-23T00:16:28;99421.25;;;14.00;58.72
21730;BME280;11027;51.030;13.812;2023-03-23T00:18:56;99430.44;;;14.06;58.51
21730;BME280;11027;51.030;13.812;2023-03-23T00:21:23;99432.16;;;14.07;58.38
21730;BME280;11027;51.030;13.812;2023-03-23T00:23:53;99433.44;;;14.04;58.94
21730;BME280;11027;51.030;13.812;2023-03-23T00:26:18;99443.09;;;14.07;59.09
21730;BME280;11027;51.030;13.812;2023-03-23T00:28:43;99442.88;;;14.08;59.26
21730;BME280;11027;51.030;13.812;2023-03-23T00:31:11;99442.63;;;14.10;59.76
21730;BME280;11027;51.030;13.812;2023-03-23T00:33:37;99434.22;;;14.11;59.55
21730;BME280;11027;51.030;13.812;2023-03-23T00:36:04;99437.81;;;14.12;59.66
21730;BME280;11027;51.030;13.812;2023-03-23T00:38:30;99431.25;;;14.13;59.56
21730;BME280;11027;51.030;13.812;2023-03-23T00:40:55;99435.44;;;14.15;59.25
21730;BME280;11027;51.030;13.812;2023-03-23T00:43:23;99429.53;;;14.18;59.47
21730;BME280;11027;51.030;13.812;2023-03-23T00:45:50;99422.75;;;14.21;59.24
21730;BME280;11027;51.030;13.812;2023-03-23T00:48:17;99423.59;;;14.21;59.31
21730;BME280;11027;51.030;13.812;2023-03-23T00:50:43;99419.81;;;14.23;59.05
21730;BME280;11027;51.030;13.812;2023-03-23T00:53:08;99416.00;;;14.24;59.35
21730;BME280;11027;51.030;13.812;2023-03-23T00:55:33;99415.16;;;14.23;59.25
21730;BME280;11027;51.030;13.812;2023-03-23T00:57:59;99417.69;;;14.25;58.85
21730;BME280;11027;51.030;13.812;2023-03-23T01:00:24;99413.88;;;14.26;58.79
21730;BME280;11027;51.030;13.812;2023-03-23T01:02:49;99411.13;;;14.26;58.93
21730;BME280;11027;51.030;13.812;2023-03-23T01:05:16;99397.44;;;14.26;58.76
21730;BME280;11027;51.030;13.812;2023-03-23T01:07:42;99408.38;;;14.26;58.40
21730;BME280;11027;51.030;13.812;2023-03-23T01:10:10;99400.78;;;14.28;58.55
21730;BME280;11027;51.030;13.812;2023-03-23T01:12:37;99402.47;;;14.29;58.11
21730;BME280;11027;51.030;13.812;2023-03-23T01:15:03;99398.91;;;14.28;58.57
21730;BME280;11027;51.030;13.812;2023-03-23T01:17:28;99391.97;;;14.26;58.44
21730;BME280;11027;51.030;13.812;2023-03-23T01:19:53;99391.97;;;14.26;58.36
21730;BME280;11027;51.030;13.812;2023-03-23T01:22:19;99382.69;;;14.27;58.52
21730;BME280;11027;51.030;13.812;2023-03-23T01:24:44;99378.25;;;14.26;58.76
21730;BME280;11027;51.030;13.812;2023-03-23T01:27:10;99366.47;;;14.25;58.53
21730;BME280;11027;51.030;13.812;2023-03-23T01:29:35;99368.38;;;14.25;58.39
21730;BME280;11027;51.030;13.812;2023-03-23T01:32:02;99372.16;;;14.24;58.57
21730;BME280;11027;51.030;13.812;2023-03-23T01:34:27;99361.66;;;14.20;58.44
21730;BME280;11027;51.030;13.812;2023-03-23T01:36:52;99369.28;;;14.18;58.11
21730;BME280;11027;51.030;13.812;2023-03-23T01:39:17;99359.16;;;14.19;58.44
21730;BME280;11027;51.030;13.812;2023-03-23T01:41:43;99364.22;;;14.15;58.38
21730;BME280;11027;51.030;13.812;2023-03-23T01:46:57;99357.09;;;14.14;58.12
21730;BME280;11027;51.030;13.812;2023-03-23T01:49:34;99351.00;;;14.12;58.29
21730;BME280;11027;51.030;13.812;2023-03-23T01:52:07;99341.94;;;14.12;57.91
21730;BME280;11027;51.030;13.812;2023-03-23T01:54:36;99348.69;;;14.09;58.07
21730;BME280;11027;51.030;13.812;2023-03-23T01:57:06;99346.16;;;14.08;57.94
21730;BME280;11027;51.030;13.812;2023-03-23T01:59:33;99352.50;;;14.08;57.39
21730;BME280;11027;51.030;13.812;2023-03-23T02:02:00;99353.56;;;14.07;57.31
21730;BME280;11027;51.030;13.812;2023-03-23T02:04:26;99345.34;;;14.07;56.53
21730;BME280;11027;51.030;13.812;2023-03-23T02:06:52;99349.16;;;14.06;56.36
21730;BME280;11027;51.030;13.812;2023-03-23T02:09:19;99350.81;;;14.07;55.74
21730;BME280;11027;51.030;13.812;2023-03-23T02:11:48;99350.38;;;14.10;55.54
21730;BME280;11027;51.030;13.812;2023-03-23T02:14:15;99349.91;;;14.13;55.63
21730;BME280;11027;51.030;13.812;2023-03-23T02:16:59;99343.59;;;14.13;55.22
21730;BME280;11027;51.030;13.812;2023-03-23T02:29:59;99339.28;;;14.24;54.46
21730;BME280;11027;51.030;13.812;2023-03-23T02:32:44;99330.47;;;14.21;54.58
21730;BME280;11027;51.030;13.812;2023-03-23T02:35:47;99338.06;;;14.19;54.70
21730;BME280;11027;51.030;13.812;2023-03-23T02:38:18;99336.84;;;14.15;54.92
21730;BME280;11027;51.030;13.812;2023-03-23T02:40:47;99337.44;;;14.17;54.99
21730;BME280;11027;51.030;13.812;2023-03-23T02:43:17;99353.28;;;14.15;55.10
21730;BME280;11027;51.030;13.812;2023-03-23T02:45:45;99342.78;;;14.12;55.14
21730;BME280;11027;51.030;13.812;2023-03-23T02:48:13;99337.75;;;14.09;55.42
21730;BME280;11027;51.030;13.812;2023-03-23T02:50:43;99334.38;;;14.07;55.55
21730;BME280;11027;51.030;13.812;2023-03-23T02:53:12;99335.69;;;14.05;55.04
21730;BME280;11027;51.030;13.812;2023-03-23T02:55:41;99336.97;;;14.02;55.01
21730;BME280;11027;51.030;13.812;2023-03-23T02:58:11;99335.28;;;14.01;55.39
21730;BME280;11027;51.030;13.812;2023-03-23T03:00:37;99334.88;;;13.97;55.35
21730;BME280;11027;51.030;13.812;2023-03-23T03:03:04;99336.16;;;13.95;55.70
21730;BME280;11027;51.030;13.812;2023-03-23T03:08:08;99329.94;;;13.88;55.79
21730;BME280;11027;51.030;13.812;2023-03-23T03:11:02;99330.34;;;13.85;55.96
21730;BME280;11027;51.030;13.812;2023-03-23T03:13:37;99324.06;;;13.84;56.08
21730;BME280;11027;51.030;13.812;2023-03-23T03:18:59;99333.56;;;13.82;56.24
21730;BME280;11027;51.030;13.812;2023-03-23T03:21:28;99325.34;;;13.82;56.27
21730;BME280;11027;51.030;13.812;2023-03-23T03:23:57;99322.16;;;13.85;56.13
21730;BME280;11027;51.030;13.812;2023-03-23T03:26:26;99322.75;;;13.87;56.53
21730;BME280;11027;51.030;13.812;2023-03-23T03:28:53;99326.94;;;13.89;56.38
21730;BME280;11027;51.030;13.812;2023-03-23T03:31:23;99322.94;;;13.92;56.33
21730;BME280;11027;51.030;13.812;2023-03-23T03:33:51;99323.56;;;13.94;56.18
21730;BME280;11027;51.030;13.812;2023-03-23T03:36:20;99325.22;;;13.95;56.21
21730;BME280;11027;51.030;13.812;2023-03-23T03:38:48;99324.78;;;13.98;56.17
21730;BME280;11027;51.030;13.812;2023-03-23T03:41:14;99324.78;;;13.98;56.37
21730;BME280;11027;51.030;13.812;2023-03-23T03:43:40;99322.28;;;13.96;56.53
21730;BME280;11027;51.030;13.812;2023-03-23T03:46:05;99318.44;;;13.97;56.59
21730;BME280;11027;51.030;13.812;2023-03-23T03:48:30;99317.63;;;13.97;56.25
21730;BME280;11027;51.030;13.812;2023-03-23T03:50:56;99317.63;;;13.97;56.34
21730;BME280;11027;51.030;13.812;2023-03-23T03:53:23;99314.66;;;13.98;56.49
21730;BME280;11027;51.030;13.812;2023-03-23T03:55:49;99317.19;;;14.00;56.34
21730;BME280;11027;51.030;13.812;2023-03-23T03:58:14;99316.13;;;14.01;56.30
21730;BME280;11027;51.030;13.812;2023-03-23T04:00:39;99319.06;;;13.99;56.24
21730;BME280;11027;51.030;13.812;2023-03-23T04:03:06;99313.84;;;13.98;56.21
21730;BME280;11027;51.030;13.812;2023-03-23T04:05:32;99313.84;;;13.98;56.51
21730;BME280;11027;51.030;13.812;2023-03-23T04:07:58;99315.34;;;13.94;56.49
21730;BME280;11027;51.030;13.812;2023-03-23T04:10:27;99318.44;;;13.97;56.47
21730;BME280;11027;51.030;13.812;2023-03-23T04:12:54;99315.50;;;13.99;56.65
21730;BME280;11027;51.030;13.812;2023-03-23T04:15:20;99314.66;;;13.98;56.71
21730;BME280;11027;51.030;13.812;2023-03-23T04:17:45;99312.16;;;13.97;56.39
21730;BME280;11027;51.030;13.812;2023-03-23T04:20:10;99299.28;;;13.97;56.20
21730;BME280;11027;51.030;13.812;2023-03-23T04:22:54;99305.38;;;13.99;56.11
21730;BME280;11027;51.030;13.812;2023-03-23T04:25:20;99302.41;;;14.01;56.04
21730;BME280;11027;51.030;13.812;2023-03-23T04:27:47;99291.94;;;13.98;56.50
21730;BME280;11027;51.030;13.812;2023-03-23T04:30:19;99299.06;;;13.99;56.40
21730;BME280;11027;51.030;13.812;2023-03-23T04:32:45;99296.94;;;14.01;56.19
21730;BME280;11027;51.030;13.812;2023-03-23T04:35:12;99291.47;;;14.01;56.46
21730;BME280;11027;51.030;13.812;2023-03-23T04:37:39;99286.81;;;14.01;56.22
21730;BME280;11027;51.030;13.812;2023-03-23T04:40:06;99293.16;;;14.02;56.39
21730;BME280;11027;51.030;13.812;2023-03-23T04:42:36;99295.28;;;14.00;56.01
21730;BME280;11027;51.030;13.812;2023-03-23T04:45:03;99286.88;;;13.95;56.54
21730;BME280;11027;51.030;13.812;2023-03-23T04:47:32;99296.19;;;13.94;56.28
21730;BME280;11027;51.030;13.812;2023-03-23T04:49:58;99287.09;;;13.93;56.19
21730;BME280;11027;51.030;13.812;2023-03-23T04:52:27;99289.47;;;13.90;56.40
21730;BME280;11027;51.030;13.812;2023-03-23T04:54:54;99291.75;;;13.93;56.60
21730;BME280;11027;51.030;13.812;2023-03-23T04:57:21;99287.09;;;13.93;56.67
21730;BME280;11027;51.030;13.812;2023-03-23T04:59:46;99297.84;;;13.95;56.41
21730;BME280;11027;51.030;13.812;2023-03-23T05:02:12;99292.84;;;13.92;56.71
21730;BME280;11027;51.030;13.812;2023-03-23T05:04:38;99297.06;;;13.88;56.65
21730;BME280;11027;51.030;13.812;2023-03-23T05:07:05;99289.47;;;13.90;57.07
21730;BME280;11027;51.030;13.812;2023-03-23T05:09:31;99284.00;;;13.90;56.64
21730;BME280;11027;51.030;13.812;2023-03-23T05:11:57;99275.53;;;13.91;56.75
21730;BME280;11027;51.030;13.812;2023-03-23T05:14:24;99280.19;;;13.91;56.67
21730;BME280;11027;51.030;13.812;2023-03-23T05:16:50;99284.63;;;13.92;56.75
21730;BME280;11027;51.030;13.812;2023-03-23T05:19:17;99289.00;;;13.93;56.43
21730;BME280;11027;51.030;13.812;2023-03-23T05:21:42;99295.94;;;13.95;56.00
21730;BME280;11027;51.030;13.812;2023-03-23T05:24:09;99294.06;;;13.96;56.71
21730;BME280;11027;51.030;13.812;2023-03-23T05:26:35;99285.84;;;13.96;56.41
21730;BME280;11027;51.030;13.812;2023-03-23T05:29:00;99292.16;;;13.96;56.57
21730;BME280;11027;51.030;13.812;2023-03-23T05:31:25;99290.25;;;13.97;56.31
21730;BME280;11027;51.030;13.812;2023-03-23T05:33:52;99276.34;;;13.98;56.46
21730;BME280;11027;51.030;13.812;2023-03-23T05:36:17;99283.47;;;13.99;56.60
21730;BME280;11027;51.030;13.812;2023-03-23T05:38:43;99286.00;;;14.01;56.54
21730;BME280;11027;51.030;13.812;2023-03-23T05:41:11;99280.91;;;14.05;56.39
21730;BME280;11027;51.030;13.812;2023-03-23T05:43:37;99286.16;;;14.06;56.45
21730;BME280;11027;51.030;13.812;2023-03-23T05:46:02;99286.78;;;14.08;56.21
21730;BME280;11027;51.030;13.812;2023-03-23T05:48:27;99295.59;;;14.10;55.99
21730;BME280;11027;51.030;13.812;2023-03-23T05:50:53;99289.66;;;14.13;56.61
21730;BME280;11027;51.030;13.812;2023-03-23T05:53:18;99289.22;;;14.16;56.11
21730;BME280;11027;51.030;13.812;2023-03-23T05:55:44;99283.28;;;14.19;56.24
21730;BME280;11027;51.030;13.812;2023-03-23T05:58:10;99280.09;;;14.23;56.16
21730;BME280;11027;51.030;13.812;2023-03-23T06:00:35;99282.16;;;14.27;56.24
21730;BME280;11027;51.030;13.812;2023-03-23T06:03:01;99289.09;;;14.30;55.88
21730;BME280;11027;51.030;13.812;2023-03-23T06:05:26;99290.78;;;14.31;55.88
21730;BME280;11027;51.030;13.812;2023-03-23T06:07:52;99289.69;;;14.32;55.77
21730;BME280;11027;51.030;13.812;2023-03-23T06:10:18;99295.41;;;14.30;55.86
21730;BME280;11027;51.030;13.812;2023-03-23T06:12:43;99299.22;;;14.29;56.01
21730;BME280;11027;51.030;13.812;2023-03-23T06:15:09;99304.91;;;14.28;56.01
21730;BME280;11027;51.030;13.812;2023-03-23T06:17:35;99298.38;;;14.29;55.99
21730;BME280;11027;51.030;13.812;2023-03-23T06:20:03;99302.34;;;14.33;55.99
21730;BME280;11027;51.030;13.812;2023-03-23T06:22:33;99299.38;;;14.34;55.65
21730;BME280;11027;51.030;13.812;2023-03-23T06:24:59;99290.09;;;14.35;55.81
21730;BME280;11027;51.030;13.812;2023-03-23T06:27:25;99278.00;;;14.43;55.15
21730;BME280;11027;51.030;13.812;2023-03-23T06:29:50;99280.44;;;14.51;55.19
21730;BME280;11027;51.030;13.812;2023-03-23T06:32:15;99279.94;;;14.61;54.92
21730;BME280;11027;51.030;13.812;2023-03-23T06:34:41;99287.03;;;14.69;54.78
21730;BME280;11027;51.030;13.812;2023-03-23T06:37:09;99276.34;;;14.79;54.24
21730;BME280;11027;51.030;13.812;2023-03-23T06:39:34;99278.78;;;14.87;54.01
21730;BME280;11027;51.030;13.812;2023-03-23T06:42:00;99292.16;;;14.95;53.25
21730;BME280;11027;51.030;13.812;2023-03-23T06:44:26;99295.03;;;15.00;52.39
21730;BME280;11027;51.030;13.812;2023-03-23T06:46:51;99291.97;;;15.09;52.22
21730;BME280;11027;51.030;13.812;2023-03-23T06:49:17;99298.72;;;15.13;52.31
21730;BME280;11027;51.030;13.812;2023-03-23T06:51:42;99297.84;;;15.12;51.68
21730;BME280;11027;51.030;13.812;2023-03-23T06:54:07;99301.19;;;15.14;51.40
21730;BME280;11027;51.030;13.812;2023-03-23T06:56:33;99306.00;;;15.19;51.69
21730;BME280;11027;51.030;13.812;2023-03-23T06:58:59;99314.25;;;15.19;51.14
21730;BME280;11027;51.030;13.812;2023-03-23T07:01:24;99313.75;;;15.22;50.40
21730;BME280;11027;51.030;13.812;2023-03-23T07:03:49;99314.97;;;15.26;50.49
21730;BME280;11027;51.030;13.812;2023-03-23T07:06:14;99314.03;;;15.32;50.20
21730;BME280;11027;51.030;13.812;2023-03-23T07:08:41;99318.16;;;15.42;49.81
21730;BME280;11027;51.030;13.812;2023-03-23T07:11:06;99321.78;;;15.54;49.63
21730;BME280;11027;51.030;13.812;2023-03-23T07:13:31;99319.28;;;15.64;49.36
21730;BME280;11027;51.030;13.812;2023-03-23T07:15:57;99331.16;;;15.76;49.20
21730;BME280;11027;51.030;13.812;2023-03-23T07:18:23;99319.63;;;15.86;48.27
21730;BME280;11027;51.030;13.812;2023-03-23T07:20:50;99315.19;;;15.97;48.74
21730;BME280;11027;51.030;13.812;2023-03-23T07:23:16;99321.44;;;16.04;48.04
21730;BME280;11027;51.030;13.812;2023-03-23T07:25:42;99341.63;;;16.10;48.04
21730;BME280;11027;51.030;13.812;2023-03-23T07:28:08;99328.50;;;16.12;47.92
21730;BME280;11027;51.030;13.812;2023-03-23T07:30:33;99339.50;;;16.12;48.24
21730;BME280;11027;51.030;13.812;2023-03-23T07:32:59;99347.47;;;16.13;47.53
21730;BME280;11027;51.030;13.812;2023-03-23T07:35:25;99332.19;;;16.17;48.25
21730;BME280;11027;51.030;13.812;2023-03-23T07:37:51;99325.72;;;16.24;48.32
21730;BME280;11027;51.030;13.812;2023-03-23T07:40:17;99360.41;;;16.25;47.24
21730;BME280;11027;51.030;13.812;2023-03-23T07:42:45;99355.38;;;16.22;47.49
21730;BME280;11027;51.030;13.812;2023-03-23T07:45:12;99355.38;;;16.22;47.34
21730;BME280;11027;51.030;13.812;2023-03-23T07:47:38;99355.97;;;16.24;47.65
21730;BME280;11027;51.030;13.812;2023-03-23T07:50:04;99360.41;;;16.25;47.30
21730;BME280;11027;51.030;13.812;2023-03-23T07:52:29;99356.56;;;16.26;47.47
21730;BME280;11027;51.030;13.812;2023-03-23T07:54:56;99365.41;;;16.28;47.24
21730;BME280;11027;51.030;13.812;2023-03-23T07:57:21;99366.16;;;16.35;47.25
21730;BME280;11027;51.030;13.812;2023-03-23T07:59:47;99380.00;;;16.40;47.35
21730;BME280;11027;51.030;13.812;2023-03-23T08:02:12;99375.72;;;16.44;47.15
21730;BME280;11027;51.030;13.812;2023-03-23T08:04:38;99362.44;;;16.41;47.90
21730;BME280;11027;51.030;13.812;2023-03-23T08:07:03;99353.13;;;16.42;47.28
21730;BME280;11027;51.030;13.812;2023-03-23T08:09:32;99357.06;;;16.46;47.46
21730;BME280;11027;51.030;13.812;2023-03-23T08:11:57;99362.91;;;16.50;47.40
21730;BME280;11027;51.030;13.812;2023-03-23T08:14:23;99368.19;;;16.51;47.38
21730;BME280;11027;51.030;13.812;2023-03-23T08:16:51;99366.16;;;16.58;47.32
21730;BME280;11027;51.030;13.812;2023-03-23T08:19:17;99359.94;;;16.63;47.59
21730;BME280;11027;51.030;13.812;2023-03-23T08:21:42;99371.16;;;16.62;47.89
21730;BME280;11027;51.030;13.812;2023-03-23T08:24:07;99377.16;;;16.58;47.84
21730;BME280;11027;51.030;13.812;2023-03-23T08:26:32;99381.91;;;16.51;47.79
21730;BME280;11027;51.030;13.812;2023-03-23T08:28:58;99385.03;;;16.43;48.05
21730;BME280;11027;51.030;13.812;2023-03-23T08:31:23;99379.16;;;16.39;48.08
21730;BME280;11027;51.030;13.812;2023-03-23T08:33:49;99384.19;;;16.31;48.15
21730;BME280;11027;51.030;13.812;2023-03-23T08:36:15;99382.38;;;16.25;48.14
21730;BME280;11027;51.030;13.812;2023-03-23T08:38:40;99388.00;;;16.18;48.72
21730;BME280;11027;51.030;13.812;2023-03-23T08:41:06;99386.31;;;16.17;49.06
21730;BME280;11027;51.030;13.812;2023-03-23T08:43:33;99383.78;;;16.15;49.53
21730;BME280;11027;51.030;13.812;2023-03-23T08:45:59;99382.13;;;16.14;49.07
21730;BME280;11027;51.030;13.812;2023-03-23T08:48:25;99377.47;;;16.15;49.43
21730;BME280;11027;51.030;13.812;2023-03-23T08:50:50;99381.66;;;16.17;49.05
21730;BME280;11027;51.030;13.812;2023-03-23T08:53:17;99392.91;;;16.16;49.35
21730;BME280;11027;51.030;13.812;2023-03-23T08:55:43;99384.28;;;16.12;49.39
21730;BME280;11027;51.030;13.812;2023-03-23T08:58:09;99385.00;;;16.19;49.59
21730;BME280;11027;51.030;13.812;2023-03-23T09:00:34;99386.44;;;16.22;49.78
21730;BME280;11027;51.030;13.812;2023-03-23T09:03:00;99388.59;;;16.20;49.79
21730;BME280;11027;51.030;13.812;2023-03-23T09:05:26;99380.81;;;16.17;50.26
21730;BME280;11027;51.030;13.812;2023-03-23T09:07:55;99385.72;;;16.15;50.07
21730;BME280;11027;51.030;13.812;2023-03-23T09:10:24;99383.34;;;16.18;50.39
21730;BME280;11027;51.030;13.812;2023-03-23T09:12:51;99376.41;;;16.28;50.09
21730;BME280;11027;51.030;13.812;2023-03-23T09:15:17;99385.97;;;16.37;50.00
21730;BME280;11027;51.030;13.812;2023-03-23T09:17:46;99401.88;;;16.47;50.05
21730;BME280;11027;51.030;13.812;2023-03-23T09:20:13;99396.63;;;16.45;49.88
21730;BME280;11027;51.030;13.812;2023-03-23T09:22:44;99399.88;;;16.42;50.20
21730;BME280;11027;51.030;13.812;2023-03-23T09:25:12;99400.78;;;16.36;50.40
21730;BME280;11027;51.030;13.812;2023-03-23T09:27:38;99396.16;;;16.36;50.74
21730;BME280;11027;51.030;13.812;2023-03-23T09:30:06;99396.47;;;16.40;51.12
21730;BME280;11027;51.030;13.812;2023-03-23T09:32:35;99402.47;;;16.37;51.05
21730;BME280;11027;51.030;13.812;2023-03-23T09:35:02;99411.44;;;16.32;51.65
21730;BME280;11027;51.030;13.812;2023-03-23T09:37:28;99403.41;;;16.31;52.43
21730;BME280;11027;51.030;13.812;2023-03-23T09:39:54;99405.06;;;16.32;52.69
21730;BME280;11027;51.030;13.812;2023-03-23T09:42:31;99415.38;;;16.25;53.87
21730;BME280;11027;51.030;13.812;2023-03-23T09:45:08;99419.16;;;16.24;53.83
21730;BME280;11027;51.030;13.812;2023-03-23T09:47:55;99411.78;;;16.36;53.91
21730;BME280;11027;51.030;13.812;2023-03-23T09:50:26;99424.72;;;16.47;53.82
21730;BME280;11027;51.030;13.812;2023-03-23T09:55:25;99432.47;;;16.38;55.23
21730;BME280;11027;51.030;13.812;2023-03-23T10:00:41;99417.50;;;16.23;55.21
21730;BME280;11027;51.030;13.812;2023-03-23T10:03:14;99412.50;;;16.31;55.30
21730;BME280;11027;51.030;13.812;2023-03-23T10:05:42;99413.47;;;16.37;55.40
21730;BME280;11027;51.030;13.812;2023-03-23T10:08:19;99415.88;;;16.45;55.88
21730;BME280;11027;51.030;13.812;2023-03-23T10:16:22;99428.44;;;16.65;54.76
21730;BME280;11027;51.030;13.812;2023-03-23T10:18:58;99416.34;;;16.66;55.17
21730;BME280;11027;51.030;13.812;2023-03-23T10:21:26;99407.16;;;16.72;55.18
21730;BME280;11027;51.030;13.812;2023-03-23T10:24:08;99406.69;;;16.75;54.87
21730;BME280;11027;51.030;13.812;2023-03-23T10:29:45;99422.25;;;16.93;54.75
21730;BME280;11027;51.030;13.812;2023-03-23T10:32:17;99409.94;;;16.95;54.65
21730;BME280;11027;51.030;13.812;2023-03-23T10:34:55;99409.78;;;17.02;54.64
21730;BME280;11027;51.030;13.812;2023-03-23T10:37:25;99411.34;;;17.10;54.58
21730;BME280;11027;51.030;13.812;2023-03-23T10:39:54;99405.38;;;17.13;54.37
21730;BME280;11027;51.030;13.812;2023-03-23T10:42:32;99404.78;;;17.11;54.14
21730;BME280;11027;51.030;13.812;2023-03-23T10:45:00;99403.69;;;17.12;53.57
21730;BME280;11027;51.030;13.812;2023-03-23T10:47:36;99390.03;;;17.17;54.09
21730;BME280;11027;51.030;13.812;2023-03-23T10:50:05;99394.81;;;17.22;53.88
21730;BME280;11027;51.030;13.812;2023-03-23T10:52:39;99389.38;;;17.27;53.94
21730;BME280;11027;51.030;13.812;2023-03-23T10:57:35;99377.28;;;17.39;53.37
21730;BME280;11027;51.030;13.812;2023-03-23T11:02:37;99380.19;;;17.62;53.58
21730;BME280;11027;51.030;13.812;2023-03-23T11:05:07;99395.28;;;17.59;52.90
21730;BME280;11027;51.030;13.812;2023-03-23T11:07:38;99393.66;;;17.46;52.74
21730;BME280;11027;51.030;13.812;2023-03-23T11:10:17;99387.69;;;17.37;53.25
21730;BME280;11027;51.030;13.812;2023-03-23T11:12:45;99392.63;;;17.35;53.31
21730;BME280;11027;51.030;13.812;2023-03-23T11:15:26;99405.91;;;17.27;53.09
21730;BME280;11027;51.030;13.812;2023-03-23T11:18:04;99414.91;;;17.22;53.33
21730;BME280;11027;51.030;13.812;2023-03-23T11:20:35;99413.03;;;17.11;53.35
21730;BME280;11027;51.030;13.812;2023-03-23T11:26:03;99408.22;;;16.94;53.01
21730;BME280;11027;51.030;13.812;2023-03-23T11:28:35;99428.72;;;16.87;53.27
21730;BME280;11027;51.030;13.812;2023-03-23T11:31:03;99413.25;;;16.74;53.96
21730;BME280;11027;51.030;13.812;2023-03-23T11:33:35;99418.75;;;16.74;54.60
21730;BME280;11027;51.030;13.812;2023-03-23T11:36:01;99407.03;;;16.67;54.79
21730;BME280;11027;51.030;13.812;2023-03-23T11:38:27;99414.44;;;16.66;55.47
21730;BME280;11027;51.030;13.812;2023-03-23T11:40:53;99416.34;;;16.66;55.20
21730;BME280;11027;51.030;13.812;2023-03-23T11:43:20;99415.16;;;16.62;55.06
21730;BME280;11027;51.030;13.812;2023-03-23T11:48:44;99429.25;;;16.53;55.85
21730;BME280;11027;51.030;13.812;2023-03-23T11:51:21;99426.28;;;16.55;55.68
21730;BME280;11027;51.030;13.812;2023-03-23T11:53:55;99434.28;;;16.56;56.82
21730;BME280;11027;51.030;13.812;2023-03-23T11:56:30;99442.06;;;16.59;56.99
21730;BME280;11027;51.030;13.812;2023-03-23T11:58:57;99439.78;;;16.56;57.85
21730;BME280;11027;51.030;13.812;2023-03-23T12:04:22;99447.44;;;16.54;58.60
21730;BME280;11027;51.030;13.812;2023-03-23T12:07:08;99449.09;;;16.55;58.42
21730;BME280;11027;51.030;13.812;2023-03-23T12:09:52;99457.13;;;16.57;57.97
21730;BME280;11027;51.030;13.812;2023-03-23T12:15:24;99440.13;;;16.60;58.14
21730;BME280;11027;51.030;13.812;2023-03-23T12:18:03;99437.88;;;16.69;58.02
21730;BME280;11027;51.030;13.812;2023-03-23T12:23:07;99447.34;;;16.73;58.08
21730;BME280;11027;51.030;13.812;2023-03-23T12:28:32;99453.91;;;16.72;58.37
21730;BME280;11027;51.030;13.812;2023-03-23T12:34:05;99427.34;;;16.77;58.56
21730;BME280;11027;51.030;13.812;2023-03-23T12:37:08;99434.91;;;16.94;58.14
21730;BME280;11027;51.030;13.812;2023-03-23T12:39:43;99421.63;;;17.03;57.92
21730;BME280;11027;51.030;13.812;2023-03-23T12:42:43;99419.72;;;17.15;57.54
21730;BME280;11027;51.030;13.812;2023-03-23T12:48:00;99428.53;;;17.29;57.76
21730;BME280;11027;51.030;13.812;2023-03-23T12:50:59;99416.59;;;17.23;56.54
21730;BME280;11027;51.030;13.812;2023-03-23T12:53:50;99423.38;;;17.20;56.14
21730;BME280;11027;51.030;13.812;2023-03-23T12:56:32;99423.53;;;17.14;56.27
21730;BME280;11027;51.030;13.812;2023-03-23T12:59:05;99414.44;;;17.13;56.39
21730;BME280;11027;51.030;13.812;2023-03-23T13:01:36;99424.72;;;17.18;56.24
21730;BME280;11027;51.030;13.812;2023-03-23T13:06:38;99418.59;;;17.28;56.11
21730;BME280;11027;51.030;13.812;2023-03-23T13:09:13;99418.00;;;17.37;55.35
21730;BME280;11027;51.030;13.812;2023-03-23T13:11:41;99416.50;;;17.47;55.35
21730;BME280;11027;51.030;13.812;2023-03-23T13:14:30;99410.38;;;17.56;54.72
21730;BME280;11027;51.030;13.812;2023-03-23T13:17:21;99415.41;;;17.59;54.91
21730;BME280;11027;51.030;13.812;2023-03-23T13:22:55;99419.38;;;17.52;55.65
21730;BME280;11027;51.030;13.812;2023-03-23T13:28:22;99408.00;;;17.48;55.67
21730;BME280;11027;51.030;13.812;2023-03-23T13:30:55;99396.63;;;17.45;54.87
21730;BME280;11027;51.030;13.812;2023-03-23T13:33:22;99399.53;;;17.38;54.56
21730;BME280;11027;51.030;13.812;2023-03-23T13:35:49;99401.13;;;17.34;54.71
21730;BME280;11027;51.030;13.812;2023-03-23T13:38:25;99420.41;;;17.22;54.42
21730;BME280;11027;51.030;13.812;2023-03-23T13:40:52;99400.81;;;17.07;53.68
21730;BME280;11027;51.030;13.812;2023-03-23T13:43:29;99396.25;;;17.00;53.41
21730;BME280;11027;51.030;13.812;2023-03-23T13:46:22;99380.00;;;17.11;53.37
21730;BME280;11027;51.030;13.812;2023-03-23T13:49:04;99370.72;;;17.29;53.36
21730;BME280;11027;51.030;13.812;2023-03-23T13:59:17;99360.84;;;18.02;52.17
21730;BME280;11027;51.030;13.812;2023-03-23T14:01:54;99353.75;;;18.40;51.21
21730;BME280;11027;51.030;13.812;2023-03-23T14:04:21;99353.13;;;19.11;49.79
21730;BME280;11027;51.030;13.812;2023-03-23T14:06:48;99362.81;;;20.49;47.16
21730;BME280;11027;51.030;13.812;2023-03-23T14:09:26;99364.03;;;22.82;42.87
21730;BME280;11027;51.030;13.812;2023-03-23T14:11:59;99352.88;;;25.05;37.95
21730;BME280;11027;51.030;13.812;2023-03-23T14:14:31;99326.31;;;27.06;35.80
21730;BME280;11027;51.030;13.812;2023-03-23T14:17:17;99323.34;;;27.67;34.41